This is the latest recevied weather packets stored in our database for station/object KC4LZN. If no packets are shown the sender has not sent any weather packets the latest 1 day(s).
| Time | Temp. | Humidity | Pressure | Rain* | Wind** | Luminosity | Snow |
|---|---|---|---|---|---|---|---|
| 1778018979 | 27.22° C | 53% | 1015.5 hPa | 0 mm | 1.79 m/s, 125° | 158 W/m² | - |
| 1778018676 | 27.78° C | 52% | 1015.7 hPa | 0 mm | 3.58 m/s, 130° | 226 W/m² | - |
| 1778018373 | 27.78° C | 52% | 1015.4 hPa | 0 mm | 1.79 m/s, 64° | 244 W/m² | - |
| 1778018071 | 27.78° C | 53% | 1015.6 hPa | 0 mm | 4.47 m/s, 57° | 202 W/m² | - |
| 1778017769 | 27.78° C | 53% | 1015.4 hPa | 0 mm | 2.68 m/s, 67° | 118 W/m² | - |
| 1778017466 | 27.78° C | 52% | 1015.5 hPa | 0 mm | 3.13 m/s, 69° | 125 W/m² | - |
| 1778017163 | 27.78° C | 52% | 1015.4 hPa | 0 mm | 4.02 m/s, 119° | 136 W/m² | - |
| 1778016861 | 28.89° C | 51% | 1015.6 hPa | 0 mm | 4.02 m/s, 31° | 136 W/m² | - |
| 1778016557 | 30.56° C | 46% | 1015.3 hPa | 0 mm | 0.89 m/s, 114° | 383 W/m² | - |
| 1778016254 | 30° C | 47% | 1015.2 hPa | 0 mm | 0.45 m/s, 36° | 428 W/m² | - |
| 1778015950 | 30° C | 48% | 1015.3 hPa | 0 mm | 2.68 m/s, 73° | 410 W/m² | - |
| 1778015648 | 30° C | 40% | 1015.1 hPa | 0 mm | 2.68 m/s, 85° | 404 W/m² | - |
| 1778015344 | 30° C | 38% | 1015.2 hPa | 0 mm | 0 m/s | 428 W/m² | - |
| 1778015041 | 29.44° C | 39% | 1015.2 hPa | 0 mm | 0.89 m/s, 40° | 179 W/m² | - |
| 1778014738 | 30° C | 39% | 1015.1 hPa | 0 mm | 0.89 m/s, 347° | 458 W/m² | - |
| 1778014437 | 30.56° C | 37% | 1015.1 hPa | 0 mm | 1.34 m/s, 59° | 488 W/m² | - |
| 1778014133 | 30.56° C | 39% | 1015.2 hPa | 0 mm | 0.89 m/s, 23° | 488 W/m² | - |
| 1778013831 | 30° C | 38% | 1015.1 hPa | 0 mm | 0.89 m/s, 50° | 467 W/m² | - |
| 1778013528 | 30° C | 38% | 1015.3 hPa | 0 mm | 1.34 m/s, 82° | 484 W/m² | - |
| 1778013224 | 30° C | 40% | 1015.2 hPa | 0 mm | 0.89 m/s, 59° | 216 W/m² | - |
| 1778012921 | 30° C | 39% | 1015.2 hPa | 0 mm | 2.24 m/s, 105° | 524 W/m² | - |
| 1778012617 | 30.56° C | 39% | 1015.4 hPa | 0 mm | 0.89 m/s, 44° | 565 W/m² | - |
| 1778012314 | 30.56° C | 39% | 1015.5 hPa | 0 mm | 1.79 m/s, 11° | 630 W/m² | - |
| 1778012011 | 30° C | 40% | 1015.4 hPa | 0 mm | 1.79 m/s, 40° | 561 W/m² | - |
| 1778011710 | 30° C | 38% | 1015.6 hPa | 0 mm | 1.79 m/s, 9° | 523 W/m² | - |
* Rain latest hour (hover to see other rain measurements)
** Current wind speed in m/s (hover to see current wind gust speed)